Time;durP1;ratioP1;P1;durP2;ratioP2;P2;SDS_P1;SDS_P2;PMS_P1;PMS_P2;Temp;Humidity;BMP_temperature;BMP_pressure;BME280_temperature;BME280_humidity;BME280_pressure;Samples;Min_cycle;Max_cycle;Signal;HPM_P1;HPM_P2
2022/12/25 00:01:50;;;;;;;30.42;13.85;;;;;;;;;;5052860;28;20051;-65
2022/12/25 00:04:16;;;;;;;36.35;14.82;;;;;;;;;;5052728;28;20028;-65
2022/12/25 00:06:41;;;;;;;31.33;14.68;;;;;;;;;;5052305;28;20028;-65
2022/12/25 00:09:07;;;;;;;31.48;15.50;;;;;;;;;;5052725;28;20462;-65
2022/12/25 00:11:32;;;;;;;29.73;14.60;;;;;;;;;;5052802;28;20032;-65
2022/12/25 00:13:58;;;;;;;26.30;13.65;;;;;;;;;;5052456;28;20017;-66
2022/12/25 00:16:24;;;;;;;31.10;15.15;;;;;;;;;;5052585;28;20376;-65
2022/12/25 00:18:51;;;;;;;36.92;15.60;;;;;;;;;;5052711;28;20469;-65
2022/12/25 00:21:17;;;;;;;33.85;14.45;;;;;;;;;;5052507;28;20029;-67
2022/12/25 00:23:42;;;;;;;30.17;14.00;;;;;;;;;;5052554;28;20462;-66
2022/12/25 00:26:11;;;;;;;26.35;13.80;;;;;;;;;;5051320;28;20029;-66
2022/12/25 00:28:37;;;;;;;29.23;13.80;;;;;;;;;;5052465;28;20394;-66
2022/12/25 00:31:11;;;;;;;28.50;14.00;;;;;;;;;;5052548;28;20032;-67
2022/12/25 00:33:39;;;;;;;29.40;13.82;;;;;;;;;;5052392;28;20021;-65
2022/12/25 00:36:06;;;;;;;24.23;12.50;;;;;;;;;;5052346;28;20045;-65
2022/12/25 00:38:33;;;;;;;25.92;13.32;;;;;;;;;;5052602;28;20363;-66
2022/12/25 00:40:58;;;;;;;24.75;12.05;;;;;;;;;;5052506;28;20025;-67
2022/12/25 00:43:24;;;;;;;18.58;10.55;;;;;;;;;;5052516;28;20083;-67
2022/12/25 00:45:58;;;;;;;19.45;10.55;;;;;;;;;;5052023;28;20033;-66
2022/12/25 00:48:24;;;;;;;20.27;10.75;;;;;;;;;;5048340;28;20024;-66
2022/12/25 00:50:53;;;;;;;16.60;10.10;;;;;;;;;;5051882;28;20059;-65
2022/12/25 00:53:19;;;;;;;18.37;9.80;;;;;;;;;;5051949;28;20025;-66
2022/12/25 00:55:59;;;;;;;18.42;9.40;;;;;;;;;;5051891;28;20613;-66
2022/12/25 00:58:27;;;;;;;24.50;9.98;;;;;;;;;;5050513;28;20059;-66
2022/12/25 01:00:53;;;;;;;17.65;9.60;;;;;;;;;;5049269;28;20028;-66
2022/12/25 01:03:18;;;;;;;23.77;11.10;;;;;;;;;;5051860;28;20431;-66
2022/12/25 01:05:53;;;;;;;22.38;10.38;;;;;;;;;;5051764;28;20021;-65
2022/12/25 01:08:18;;;;;;;16.90;9.35;;;;;;;;;;5049886;28;20359;-66
2022/12/25 01:10:43;;;;;;;18.35;9.48;;;;;;;;;;5051681;28;20013;-66
2022/12/25 01:13:09;;;;;;;21.20;8.73;;;;;;;;;;5051411;28;20088;-65
2022/12/25 01:15:35;;;;;;;17.15;7.88;;;;;;;;;;5051684;28;20017;-65
2022/12/25 01:18:01;;;;;;;13.02;7.70;;;;;;;;;;5052033;28;20025;-65
2022/12/25 01:20:26;;;;;;;16.77;8.45;;;;;;;;;;5055602;28;20025;-66
2022/12/25 01:22:52;;;;;;;13.85;8.48;;;;;;;;;;5055357;28;20092;-66
2022/12/25 01:25:17;;;;;;;15.68;8.07;;;;;;;;;;5055368;28;20107;-67
2022/12/25 01:27:43;;;;;;;17.45;8.70;;;;;;;;;;5055195;28;20021;-66
2022/12/25 01:30:09;;;;;;;18.15;9.25;;;;;;;;;;5055291;28;20036;-66
2022/12/25 01:32:34;;;;;;;28.02;12.68;;;;;;;;;;5055281;28;20378;-66
2022/12/25 01:35:00;;;;;;;26.45;12.20;;;;;;;;;;5055209;28;20112;-65
2022/12/25 01:37:25;;;;;;;26.50;11.88;;;;;;;;;;5054966;28;20115;-66
2022/12/25 01:39:51;;;;;;;28.95;15.07;;;;;;;;;;5055206;28;20382;-66
2022/12/25 01:42:22;;;;;;;33.33;16.00;;;;;;;;;;5055160;28;20508;-65
2022/12/25 01:44:47;;;;;;;27.15;13.27;;;;;;;;;;5055384;28;20055;-66
2022/12/25 01:47:15;;;;;;;28.58;13.35;;;;;;;;;;5052651;28;20477;-66
2022/12/25 01:49:44;;;;;;;27.63;13.93;;;;;;;;;;5055159;28;20021;-65
2022/12/25 01:52:14;;;;;;;25.50;12.38;;;;;;;;;;5055110;28;20397;-65
2022/12/25 01:54:45;;;;;;;21.85;9.80;;;;;;;;;;5054985;28;20168;-65
2022/12/25 01:57:20;;;;;;;17.65;8.55;;;;;;;;;;5054867;28;20382;-65
2022/12/25 01:59:46;;;;;;;16.25;8.50;;;;;;;;;;5055138;28;20067;-65
2022/12/25 02:02:12;;;;;;;14.95;7.80;;;;;;;;;;5055393;28;20118;-65
2022/12/25 02:04:45;;;;;;;23.83;8.27;;;;;;;;;;5055470;28;20462;-66
2022/12/25 02:07:17;;;;;;;15.82;7.90;;;;;;;;;;5055416;28;20044;-65
2022/12/25 02:09:43;;;;;;;20.00;9.20;;;;;;;;;;5053908;28;20060;-66
2022/12/25 02:12:33;;;;;;;17.75;8.82;;;;;;;;;;5055371;28;20029;-66
2022/12/25 02:15:02;;;;;;;21.67;9.43;;;;;;;;;;5054925;28;20041;-65
2022/12/25 02:17:37;;;;;;;25.17;14.32;;;;;;;;;;5055058;28;20032;-66
2022/12/25 02:20:21;;;;;;;31.70;16.88;;;;;;;;;;5055230;28;20076;-65
2022/12/25 02:23:15;;;;;;;35.22;17.13;;;;;;;;;;5055036;28;20029;-66
2022/12/25 02:25:41;;;;;;;31.35;15.20;;;;;;;;;;5023758;28;20080;-67
2022/12/25 02:28:31;;;;;;;31.02;15.30;;;;;;;;;;5013113;28;20037;-66
2022/12/25 02:31:11;;;;;;;26.05;12.93;;;;;;;;;;5012779;28;20106;-66
2022/12/25 02:34:02;;;;;;;;;;;;;;;;;;5013629;28;20034;-65
2022/12/25 02:36:42;;;;;;;25.92;13.68;;;;;;;;;;5012820;28;19918;-66
2022/12/25 02:42:07;;;;;;;23.23;13.18;;;;;;;;;;5013250;28;20065;-67
2022/12/25 03:07:08;;;;;;;17.52;8.23;;;;;;;;;;4993182;28;20161;-68
2022/12/25 03:12:49;;;;;;;27.55;9.23;;;;;;;;;;4992753;28;20053;-67
2022/12/25 03:18:04;;;;;;;41.90;7.22;;;;;;;;;;4993051;28;20124;-66
2022/12/25 03:28:47;;;;;;;27.63;5.35;;;;;;;;;;5054297;28;20039;-67
2022/12/25 03:31:23;;;;;;;45.25;5.45;;;;;;;;;;5053820;28;20025;-66
2022/12/25 04:36:37;;;;;;;22.98;5.50;;;;;;;;;;5050331;28;20044;-66
2022/12/25 04:39:03;;;;;;;38.30;5.00;;;;;;;;;;5050559;28;20040;-67
2022/12/25 04:41:28;;;;;;;20.60;4.90;;;;;;;;;;5050583;28;20433;-67
2022/12/25 04:43:54;;;;;;;27.33;4.68;;;;;;;;;;5050492;28;20441;-66
2022/12/25 04:46:19;;;;;;;38.88;4.88;;;;;;;;;;5050534;28;20021;-67
2022/12/25 04:48:44;;;;;;;24.80;4.75;;;;;;;;;;5050303;28;20045;-67
2022/12/25 04:51:15;;;;;;;35.65;4.65;;;;;;;;;;5050465;28;20069;-66
2022/12/25 04:53:42;;;;;;;35.97;5.72;;;;;;;;;;5053837;28;20047;-67
2022/12/25 04:56:07;;;;;;;38.10;6.75;;;;;;;;;;5054558;28;20040;-67
2022/12/25 04:58:33;;;;;;;28.27;6.75;;;;;;;;;;5054592;28;20452;-65
2022/12/25 05:01:00;;;;;;;27.08;5.63;;;;;;;;;;5054489;28;20067;-67
2022/12/25 05:03:26;;;;;;;17.42;5.72;;;;;;;;;;5054262;28;20047;-66
2022/12/25 05:05:51;;;;;;;13.55;5.55;;;;;;;;;;5054599;28;20036;-66
2022/12/25 05:08:17;;;;;;;20.42;5.95;;;;;;;;;;5054547;28;20068;-68
2022/12/25 05:10:42;;;;;;;12.80;6.20;;;;;;;;;;5054341;28;20038;-66
2022/12/25 05:13:07;;;;;;;11.68;5.93;;;;;;;;;;5054919;28;20390;-65
2022/12/25 05:15:33;;;;;;;14.60;6.57;;;;;;;;;;5056229;28;20459;-66
2022/12/25 05:17:58;;;;;;;19.98;7.28;;;;;;;;;;5056096;28;20037;-67
2022/12/25 05:20:24;;;;;;;17.63;7.68;;;;;;;;;;5056218;28;20135;-66
2022/12/25 05:22:49;;;;;;;15.38;7.88;;;;;;;;;;5056417;28;20021;-65
2022/12/25 05:25:15;;;;;;;17.35;7.70;;;;;;;;;;5056015;28;20063;-65
2022/12/25 05:27:40;;;;;;;19.30;8.18;;;;;;;;;;5056244;28;20047;-66
2022/12/25 05:30:06;;;;;;;27.33;7.93;;;;;;;;;;5056202;28;20021;-66
2022/12/25 05:32:32;;;;;;;17.40;7.93;;;;;;;;;;5055737;28;20107;-65
2022/12/25 05:34:59;;;;;;;16.13;7.35;;;;;;;;;;5055905;28;20450;-65
2022/12/25 05:37:25;;;;;;;20.55;8.07;;;;;;;;;;5055489;28;20049;-66
2022/12/25 05:39:50;;;;;;;23.35;8.73;;;;;;;;;;5055882;28;20384;-66
2022/12/25 05:42:15;;;;;;;20.55;8.52;;;;;;;;;;5055843;28;20028;-66
2022/12/25 05:44:41;;;;;;;29.10;11.10;;;;;;;;;;5055863;28;20029;-66
2022/12/25 05:47:06;;;;;;;21.77;9.35;;;;;;;;;;5055518;28;20184;-65
2022/12/25 05:49:32;;;;;;;23.20;9.60;;;;;;;;;;5055804;28;20025;-66
2022/12/25 05:51:57;;;;;;;23.65;9.02;;;;;;;;;;5055659;28;20413;-65
2022/12/25 05:54:22;;;;;;;21.23;7.93;;;;;;;;;;5054257;28;20469;-66
2022/12/25 05:56:48;;;;;;;18.67;7.80;;;;;;;;;;5055551;28;20029;-66
2022/12/25 05:59:13;;;;;;;23.13;8.15;;;;;;;;;;5055517;28;20106;-65
2022/12/25 06:01:39;;;;;;;16.50;7.80;;;;;;;;;;5055369;28;20425;-65
2022/12/25 06:04:04;;;;;;;19.75;6.75;;;;;;;;;;5054736;28;20102;-65
2022/12/25 06:06:30;;;;;;;19.92;7.60;;;;;;;;;;5055361;28;20546;-65
2022/12/25 06:08:55;;;;;;;16.63;7.55;;;;;;;;;;5055556;28;20055;-66
2022/12/25 06:11:20;;;;;;;19.67;8.02;;;;;;;;;;5055170;28;20017;-65
2022/12/25 06:13:50;;;;;;;15.85;7.68;;;;;;;;;;5055267;28;20443;-65
2022/12/25 06:16:16;;;;;;;17.17;7.70;;;;;;;;;;5054959;28;20017;-65
2022/12/25 06:18:44;;;;;;;22.00;7.72;;;;;;;;;;5053701;28;20088;-66
2022/12/25 06:21:11;;;;;;;21.05;7.63;;;;;;;;;;5055220;28;20052;-65
2022/12/25 06:23:38;;;;;;;15.98;7.78;;;;;;;;;;5054981;28;20090;-65
2022/12/25 06:26:08;;;;;;;20.40;7.95;;;;;;;;;;5053631;28;20029;-65
2022/12/25 06:28:34;;;;;;;22.30;8.13;;;;;;;;;;5055058;28;20067;-65
2022/12/25 06:31:11;;;;;;;16.70;8.02;;;;;;;;;;5054758;28;20063;-66
2022/12/25 06:33:37;;;;;;;19.73;7.13;;;;;;;;;;5054989;28;20021;-66
2022/12/25 06:36:15;;;;;;;19.13;8.20;;;;;;;;;;5054554;28;20041;-66
2022/12/25 06:38:41;;;;;;;20.92;7.57;;;;;;;;;;5054691;28;20036;-66
2022/12/25 06:41:11;;;;;;;20.17;8.48;;;;;;;;;;5054701;28;20021;-66
2022/12/25 06:43:37;;;;;;;20.38;8.13;;;;;;;;;;5054852;28;20074;-66
2022/12/25 06:46:04;;;;;;;17.35;7.72;;;;;;;;;;5054520;28;20045;-65
2022/12/25 06:48:31;;;;;;;15.93;7.57;;;;;;;;;;5054613;28;20029;-65
2022/12/25 06:50:57;;;;;;;15.93;6.78;;;;;;;;;;5054584;28;20378;-66
2022/12/25 06:53:22;;;;;;;18.23;7.30;;;;;;;;;;5054754;28;20036;-66
2022/12/25 06:55:47;;;;;;;15.45;7.05;;;;;;;;;;5054460;28;20415;-66
2022/12/25 06:58:13;;;;;;;18.50;7.05;;;;;;;;;;5054549;28;20108;-66
2022/12/25 07:00:38;;;;;;;15.80;6.60;;;;;;;;;;5054263;28;20027;-66
2022/12/25 07:03:04;;;;;;;18.33;6.85;;;;;;;;;;5054323;28;20036;-67
2022/12/25 07:05:29;;;;;;;21.48;7.90;;;;;;;;;;5054293;28;20033;-66
2022/12/25 07:07:55;;;;;;;21.45;7.07;;;;;;;;;;5054330;28;20025;-66
2022/12/25 07:10:20;;;;;;;18.95;7.25;;;;;;;;;;5054211;28;20032;-65
2022/12/25 07:12:45;;;;;;;21.20;7.95;;;;;;;;;;5054200;28;20115;-66
2022/12/25 07:15:11;;;;;;;14.88;7.30;;;;;;;;;;5053474;28;20032;-65
2022/12/25 07:17:36;;;;;;;17.58;7.57;;;;;;;;;;5051761;28;20036;-65
2022/12/25 07:20:02;;;;;;;14.52;6.95;;;;;;;;;;5054043;28;20049;-65
2022/12/25 07:22:29;;;;;;;13.60;6.22;;;;;;;;;;5054002;28;20021;-65
2022/12/25 07:24:54;;;;;;;16.73;6.25;;;;;;;;;;5053813;28;20024;-67
2022/12/25 07:27:19;;;;;;;17.15;7.47;;;;;;;;;;5053939;28;20031;-67
2022/12/25 07:29:45;;;;;;;15.63;6.50;;;;;;;;;;5053684;28;20051;-66
2022/12/25 07:32:11;;;;;;;18.60;6.82;;;;;;;;;;5053852;28;20083;-67
2022/12/25 07:34:36;;;;;;;15.25;7.68;;;;;;;;;;5053813;28;20037;-67
2022/12/25 07:37:02;;;;;;;17.40;7.20;;;;;;;;;;5053065;28;20132;-67
2022/12/25 07:39:28;;;;;;;17.65;7.07;;;;;;;;;;5053802;28;20115;-67
2022/12/25 07:41:53;;;;;;;15.88;6.60;;;;;;;;;;5053536;28;20043;-67
2022/12/25 07:44:18;;;;;;;18.42;7.10;;;;;;;;;;5053239;28;20029;-67
2022/12/25 07:46:44;;;;;;;17.98;6.82;;;;;;;;;;5053539;28;20025;-68
2022/12/25 07:49:10;;;;;;;16.45;7.25;;;;;;;;;;5053453;28;20399;-68
2022/12/25 07:51:36;;;;;;;20.98;8.05;;;;;;;;;;5053463;28;20040;-67
2022/12/25 07:54:01;;;;;;;14.20;5.95;;;;;;;;;;5053450;28;20029;-66
2022/12/25 07:56:27;;;;;;;14.77;6.45;;;;;;;;;;5053162;28;20033;-66
2022/12/25 07:58:52;;;;;;;20.45;7.68;;;;;;;;;;5053170;28;20033;-67
2022/12/25 08:01:20;;;;;;;20.42;7.90;;;;;;;;;;5053177;28;20025;-67
2022/12/25 08:03:58;;;;;;;20.50;8.25;;;;;;;;;;5053215;28;20021;-66
2022/12/25 08:06:28;;;;;;;16.73;7.07;;;;;;;;;;5053213;28;20029;-67
2022/12/25 08:08:55;;;;;;;23.65;9.30;;;;;;;;;;5053266;28;20056;-66
2022/12/25 08:11:20;;;;;;;22.35;9.02;;;;;;;;;;5053003;28;20035;-67
2022/12/25 08:13:45;;;;;;;26.20;9.90;;;;;;;;;;5052939;28;20441;-66
2022/12/25 08:16:11;;;;;;;26.33;9.77;;;;;;;;;;5052898;28;20460;-67
2022/12/25 08:18:37;;;;;;;20.95;9.45;;;;;;;;;;5052974;28;20094;-65
2022/12/25 08:21:08;;;;;;;26.30;10.85;;;;;;;;;;5052804;28;20017;-69
2022/12/25 08:23:34;;;;;;;;;;;;;;;;;;5053338;28;20035;-66
2022/12/25 08:26:01;;;;;;;31.88;11.82;;;;;;;;;;5052617;28;19913;-65
2022/12/25 08:28:28;;;;;;;26.85;11.45;;;;;;;;;;5052378;28;20029;-66
2022/12/25 08:30:54;;;;;;;39.92;13.52;;;;;;;;;;5052744;28;20052;-66
2022/12/25 08:33:19;;;;;;;31.88;13.82;;;;;;;;;;5052614;28;20463;-67
2022/12/25 08:35:44;;;;;;;38.08;13.55;;;;;;;;;;5052170;28;20124;-69
2022/12/25 08:38:11;;;;;;;31.40;11.88;;;;;;;;;;5052552;28;20048;-66
2022/12/25 08:40:37;;;;;;;33.67;12.63;;;;;;;;;;5052371;28;20364;-66
2022/12/25 08:43:03;;;;;;;33.70;10.48;;;;;;;;;;5052632;28;20481;-66
2022/12/25 08:45:29;;;;;;;33.30;12.95;;;;;;;;;;5052547;28;20043;-66
2022/12/25 08:47:55;;;;;;;34.47;13.88;;;;;;;;;;5052486;28;20031;-66
2022/12/25 08:50:24;;;;;;;37.50;12.43;;;;;;;;;;5052288;28;20389;-65
2022/12/25 08:52:50;;;;;;;33.55;13.57;;;;;;;;;;5052397;28;20045;-67
2022/12/25 08:55:15;;;;;;;28.20;12.02;;;;;;;;;;5052170;28;20084;-66
2022/12/25 08:57:41;;;;;;;32.78;12.60;;;;;;;;;;5052181;28;20040;-65
2022/12/25 09:00:07;;;;;;;36.42;12.32;;;;;;;;;;5052277;28;20044;-66
2022/12/25 09:02:33;;;;;;;25.95;12.13;;;;;;;;;;5052405;28;20475;-67
2022/12/25 09:04:58;;;;;;;28.20;12.27;;;;;;;;;;5052369;28;20039;-66
2022/12/25 09:07:24;;;;;;;30.88;11.77;;;;;;;;;;5052486;28;20037;-67
2022/12/25 09:09:49;;;;;;;32.47;12.45;;;;;;;;;;5052112;28;20040;-66
2022/12/25 09:12:15;;;;;;;55.33;13.07;;;;;;;;;;5052404;28;20056;-66
2022/12/25 09:14:40;;;;;;;52.80;12.10;;;;;;;;;;5051972;28;20075;-66
2022/12/25 09:17:05;;;;;;;38.10;11.30;;;;;;;;;;5052200;28;20025;-66
2022/12/25 09:19:31;;;;;;;39.63;10.25;;;;;;;;;;5051945;28;20025;-65
2022/12/25 09:21:56;;;;;;;41.78;12.27;;;;;;;;;;5052100;28;20493;-65
2022/12/25 09:24:22;;;;;;;27.05;8.90;;;;;;;;;;5051913;28;20028;-66
2022/12/25 09:26:47;;;;;;;41.35;11.73;;;;;;;;;;5052033;28;20025;-67
2022/12/25 09:29:15;;;;;;;40.42;9.68;;;;;;;;;;5052133;28;20099;-65
2022/12/25 09:31:41;;;;;;;59.30;12.70;;;;;;;;;;5052047;28;20025;-66
2022/12/25 09:34:08;;;;;;;47.60;10.57;;;;;;;;;;5052040;28;20110;-66
2022/12/25 09:36:34;;;;;;;31.13;11.43;;;;;;;;;;5051489;28;20041;-65
2022/12/25 09:39:00;;;;;;;23.65;8.32;;;;;;;;;;5052301;28;20393;-65
2022/12/25 09:42:13;;;;;;;50.40;9.90;;;;;;;;;;5055592;28;20028;-66
2022/12/25 09:44:45;;;;;;;39.78;9.93;;;;;;;;;;5033603;28;20560;-66
2022/12/25 09:47:14;;;;;;;29.17;10.60;;;;;;;;;;5033627;28;20133;-67
2022/12/25 09:49:48;;;;;;;30.88;10.43;;;;;;;;;;5033461;28;20044;-67
2022/12/25 09:52:18;;;;;;;33.67;11.60;;;;;;;;;;5033686;28;20442;-67
2022/12/25 09:55:05;;;;;;;49.40;10.88;;;;;;;;;;5033336;28;20109;-67
2022/12/25 09:57:31;;;;;;;33.80;10.80;;;;;;;;;;5033486;28;20223;-67
2022/12/25 09:59:57;;;;;;;50.42;11.30;;;;;;;;;;5016632;28;20029;-67
2022/12/25 10:02:51;;;;;;;49.95;13.00;;;;;;;;;;5033353;28;20383;-67
2022/12/25 10:05:40;;;;;;;35.05;10.00;;;;;;;;;;5033367;28;20403;-66
2022/12/25 10:08:14;;;;;;;31.73;10.32;;;;;;;;;;5033046;28;20569;-65
2022/12/25 10:10:49;;;;;;;33.20;11.00;;;;;;;;;;5033230;28;20030;-65
2022/12/25 10:13:51;;;;;;;46.83;10.43;;;;;;;;;;5033237;28;20475;-66
2022/12/25 10:16:38;;;;;;;40.55;10.75;;;;;;;;;;5052073;28;20041;-65
2022/12/25 10:19:30;;;;;;;28.65;9.75;;;;;;;;;;5055025;28;20029;-66
2022/12/25 10:22:00;;;;;;;20.42;7.88;;;;;;;;;;5054961;28;20104;-65
2022/12/25 10:24:37;;;;;;;31.70;10.13;;;;;;;;;;5054713;28;20017;-65
2022/12/25 10:27:13;;;;;;;35.42;11.73;;;;;;;;;;5053279;28;20036;-65
2022/12/25 10:29:39;;;;;;;40.97;10.55;;;;;;;;;;5054942;28;20536;-65
2022/12/25 10:32:05;;;;;;;38.40;10.90;;;;;;;;;;5054699;28;20485;-66
2022/12/25 10:34:31;;;;;;;34.30;11.68;;;;;;;;;;5054750;28;20021;-65
2022/12/25 10:36:57;;;;;;;32.45;12.27;;;;;;;;;;5054193;28;20124;-65
2022/12/25 10:39:24;;;;;;;31.60;11.75;;;;;;;;;;5054760;28;20113;-65
2022/12/25 10:41:59;;;;;;;26.98;11.98;;;;;;;;;;5054615;28;20030;-65
2022/12/25 10:44:25;;;;;;;36.63;13.80;;;;;;;;;;5054608;28;20052;-65
2022/12/25 10:46:53;;;;;;;23.60;10.38;;;;;;;;;;5054574;28;20386;-66
2022/12/25 10:49:21;;;;;;;24.38;9.90;;;;;;;;;;5054395;28;20036;-65
2022/12/25 10:51:46;;;;;;;22.50;9.25;;;;;;;;;;5054088;28;20033;-66
2022/12/25 10:54:28;;;;;;;23.95;9.05;;;;;;;;;;5054542;28;20025;-66
2022/12/25 10:56:58;;;;;;;27.42;10.90;;;;;;;;;;5054505;28;20031;-66
2022/12/25 10:59:26;;;;;;;26.45;11.80;;;;;;;;;;5054554;28;20021;-66
2022/12/25 11:01:52;;;;;;;24.55;10.32;;;;;;;;;;5054287;28;20440;-66
2022/12/25 11:04:24;;;;;;;28.92;12.00;;;;;;;;;;5054521;28;20106;-67
2022/12/25 11:07:16;;;;;;;28.38;11.43;;;;;;;;;;5054357;28;20017;-67
2022/12/25 11:09:59;;;;;;;24.90;8.90;;;;;;;;;;5053045;28;20083;-66
2022/12/25 11:12:31;;;;;;;25.40;10.30;;;;;;;;;;5054002;28;20031;-67
2022/12/25 11:14:59;;;;;;;29.40;12.35;;;;;;;;;;5054142;28;20024;-66
2022/12/25 11:17:26;;;;;;;33.35;11.43;;;;;;;;;;5053948;28;20377;-67
2022/12/25 11:19:53;;;;;;;37.22;12.30;;;;;;;;;;5053981;28;20385;-67
2022/12/25 11:22:19;;;;;;;29.13;9.15;;;;;;;;;;5053782;28;20017;-66
2022/12/25 11:24:45;;;;;;;31.80;12.07;;;;;;;;;;5053859;28;20074;-67
2022/12/25 11:27:26;;;;;;;26.88;12.10;;;;;;;;;;5054007;28;20020;-66
2022/12/25 11:30:03;;;;;;;20.50;8.95;;;;;;;;;;5053891;28;20033;-66
2022/12/25 11:32:30;;;;;;;29.15;13.07;;;;;;;;;;5053807;28;20025;-67
2022/12/25 11:34:57;;;;;;;31.95;11.57;;;;;;;;;;5053514;28;20036;-67
2022/12/25 11:37:31;;;;;;;30.35;12.75;;;;;;;;;;5053519;28;20049;-67
2022/12/25 11:39:57;;;;;;;22.33;9.45;;;;;;;;;;5053712;28;20506;-66
2022/12/25 11:42:33;;;;;;;29.65;9.63;;;;;;;;;;5053736;28;20036;-66
2022/12/25 11:45:10;;;;;;;21.85;9.07;;;;;;;;;;5053500;28;20031;-65
2022/12/25 11:47:41;;;;;;;23.17;9.32;;;;;;;;;;5053496;28;20086;-65
2022/12/25 11:50:19;;;;;;;23.63;8.20;;;;;;;;;;5052939;28;20370;-65
2022/12/25 11:52:47;;;;;;;26.48;12.00;;;;;;;;;;5053430;28;20118;-66
2022/12/25 11:55:18;;;;;;;24.70;10.32;;;;;;;;;;5049470;28;20021;-66
2022/12/25 11:57:56;;;;;;;31.55;11.95;;;;;;;;;;5052744;28;20029;-66
2022/12/25 12:00:22;;;;;;;25.05;10.55;;;;;;;;;;5052657;28;20496;-65
2022/12/25 12:02:59;;;;;;;27.05;11.52;;;;;;;;;;5052487;28;20438;-66
2022/12/25 12:05:41;;;;;;;27.23;11.48;;;;;;;;;;5052732;28;20029;-67
2022/12/25 12:08:08;;;;;;;27.83;10.60;;;;;;;;;;5052525;28;20025;-67
2022/12/25 12:10:58;;;;;;;33.55;12.75;;;;;;;;;;5053029;28;20048;-68
2022/12/25 12:13:47;;;;;;;30.98;10.98;;;;;;;;;;5053118;28;20028;-67
2022/12/25 12:16:12;;;;;;;35.10;12.98;;;;;;;;;;5053099;28;20029;-67
2022/12/25 12:18:38;;;;;;;27.95;10.00;;;;;;;;;;5052712;28;20493;-67
2022/12/25 12:21:19;;;;;;;32.35;12.00;;;;;;;;;;5052790;28;20025;-68
2022/12/25 12:23:59;;;;;;;19.83;9.15;;;;;;;;;;5051558;28;20036;-67
2022/12/25 12:26:27;;;;;;;33.95;13.05;;;;;;;;;;5052489;28;20032;-66
2022/12/25 12:29:02;;;;;;;34.95;13.18;;;;;;;;;;5052543;28;20029;-67
2022/12/25 12:31:41;;;;;;;26.45;9.90;;;;;;;;;;5052400;28;20021;-67
2022/12/25 12:34:19;;;;;;;19.73;9.73;;;;;;;;;;5052416;28;20030;-67
2022/12/25 12:36:45;;;;;;;38.97;11.15;;;;;;;;;;5052445;28;20075;-67
2022/12/25 12:39:20;;;;;;;37.60;14.18;;;;;;;;;;5052574;28;20463;-66
2022/12/25 12:41:47;;;;;;;38.17;14.85;;;;;;;;;;5052702;28;20105;-67
2022/12/25 12:44:16;;;;;;;37.15;12.55;;;;;;;;;;5052661;28;20053;-67
2022/12/25 12:46:54;;;;;;;31.65;12.10;;;;;;;;;;5052595;28;20033;-67
2022/12/25 12:49:29;;;;;;;30.55;12.25;;;;;;;;;;5052132;28;20033;-66
2022/12/25 12:52:29;;;;;;;29.73;13.00;;;;;;;;;;5052389;28;20442;-65
2022/12/25 12:55:00;;;;;;;34.15;12.75;;;;;;;;;;5052368;28;20031;-66
2022/12/25 12:57:31;;;;;;;31.55;12.18;;;;;;;;;;5052554;28;20040;-68
2022/12/25 12:59:57;;;;;;;32.90;12.82;;;;;;;;;;5052350;28;20033;-66
2022/12/25 13:02:38;;;;;;;38.47;13.25;;;;;;;;;;5052036;28;20025;-67
2022/12/25 13:05:34;;;;;;;30.67;12.07;;;;;;;;;;5052184;28;20025;-66
2022/12/25 13:08:15;;;;;;;19.58;9.00;;;;;;;;;;5050168;28;20045;-67
2022/12/25 13:10:45;;;;;;;32.38;11.70;;;;;;;;;;5052260;28;20029;-67
2022/12/25 13:13:21;;;;;;;;;;;;;;;;;;5053343;28;20041;-66
2022/12/25 13:15:49;;;;;;;39.67;11.90;;;;;;;;;;5056171;28;20007;-67
2022/12/25 13:18:15;;;;;;;30.92;10.18;;;;;;;;;;5055779;28;20068;-67
2022/12/25 13:20:44;;;;;;;35.65;13.32;;;;;;;;;;5055769;28;20029;-66
2022/12/25 13:23:42;;;;;;;13.82;7.88;;;;;;;;;;5056204;28;20070;-67
2022/12/25 13:26:14;;;;;;;34.53;12.27;;;;;;;;;;5021876;28;20034;-68
2022/12/25 13:28:40;;;;;;;20.60;9.65;;;;;;;;;;4997801;28;20041;-67
2022/12/25 13:31:29;;;;;;;22.92;8.82;;;;;;;;;;5013757;28;20029;-67
2022/12/25 13:33:57;;;;;;;25.67;10.70;;;;;;;;;;4997775;28;20073;-68
2022/12/25 13:36:23;;;;;;;28.00;11.73;;;;;;;;;;5013726;28;20046;-67
2022/12/25 13:38:51;;;;;;;18.45;7.07;;;;;;;;;;5014239;28;20057;-67
2022/12/25 13:44:21;;;;;;;;;;;;;;;;;;5014686;28;20041;-66
2022/12/25 13:46:47;;;;;;;33.90;11.30;;;;;;;;;;5013698;28;19913;-65
2022/12/25 13:49:18;;;;;;;29.80;8.50;;;;;;;;;;5013903;28;20497;-65
2022/12/25 13:51:45;;;;;;;32.33;11.45;;;;;;;;;;5013556;28;20137;-65
2022/12/25 13:54:12;;;;;;;36.13;13.88;;;;;;;;;;5013767;28;20034;-65
2022/12/25 13:56:52;;;;;;;49.15;16.08;;;;;;;;;;5013730;28;20368;-65
2022/12/25 13:59:21;;;;;;;35.80;13.43;;;;;;;;;;5013761;28;20045;-65
2022/12/25 14:01:47;;;;;;;27.08;11.38;;;;;;;;;;5024882;28;20048;-65
2022/12/25 14:04:15;;;;;;;37.88;12.95;;;;;;;;;;5035548;28;20030;-65
2022/12/25 14:06:41;;;;;;;23.02;10.00;;;;;;;;;;5035425;28;20040;-66
2022/12/25 14:09:10;;;;;;;42.42;13.90;;;;;;;;;;5034873;28;20022;-66
2022/12/25 14:11:36;;;;;;;36.35;13.40;;;;;;;;;;5035326;28;20442;-67
2022/12/25 14:14:11;;;;;;;42.03;13.00;;;;;;;;;;5035045;28;20026;-66
2022/12/25 14:16:39;;;;;;;29.60;11.73;;;;;;;;;;5035234;28;20375;-65
2022/12/25 14:19:30;;;;;;;47.00;17.05;;;;;;;;;;5035048;28;20034;-65
2022/12/25 14:22:04;;;;;;;;;;;;;;;;;;5035618;28;20060;-65
2022/12/25 14:24:32;;;;;;;35.10;12.52;;;;;;;;;;5034649;28;19913;-65
2022/12/25 14:27:00;;;;;;;25.90;10.07;;;;;;;;;;5053574;28;20029;-65
2022/12/25 14:29:31;;;;;;;42.75;14.80;;;;;;;;;;5054659;28;20029;-65
2022/12/25 14:31:59;;;;;;;27.45;11.52;;;;;;;;;;5054878;28;20478;-68
2022/12/25 14:34:33;;;;;;;43.20;14.45;;;;;;;;;;5054862;28;20474;-67
2022/12/25 14:37:00;;;;;;;28.65;9.10;;;;;;;;;;5054395;28;20118;-67
2022/12/25 14:39:29;;;;;;;44.28;15.70;;;;;;;;;;5054691;28;20082;-67
2022/12/25 14:41:55;;;;;;;46.58;16.70;;;;;;;;;;5054572;28;20119;-66
2022/12/25 14:44:29;;;;;;;28.77;10.65;;;;;;;;;;5054313;28;20496;-65
2022/12/25 14:47:10;;;;;;;46.40;17.00;;;;;;;;;;5054712;28;20056;-65
2022/12/25 14:49:36;;;;;;;51.83;19.85;;;;;;;;;;5054535;28;20549;-67
2022/12/25 14:52:19;;;;;;;42.92;17.10;;;;;;;;;;5054404;28;20040;-67
2022/12/25 14:54:53;;;;;;;41.08;15.90;;;;;;;;;;5054430;28;20032;-65
2022/12/25 14:57:26;;;;;;;26.55;10.88;;;;;;;;;;5054300;28;20041;-64
2022/12/25 15:00:00;;;;;;;33.60;12.50;;;;;;;;;;5054055;28;20039;-64
2022/12/25 15:02:26;;;;;;;40.42;14.63;;;;;;;;;;5054317;28;20021;-65
2022/12/25 15:04:52;;;;;;;32.55;12.18;;;;;;;;;;5052758;28;20036;-67
2022/12/25 15:07:25;;;;;;;39.08;16.33;;;;;;;;;;5054110;28;20072;-67
2022/12/25 15:09:50;;;;;;;44.67;17.05;;;;;;;;;;5054116;28;20091;-67
2022/12/25 15:12:16;;;;;;;36.50;16.88;;;;;;;;;;5053684;28;20096;-67
2022/12/25 15:14:41;;;;;;;39.13;16.50;;;;;;;;;;5054211;28;20025;-67
2022/12/25 15:17:23;;;;;;;41.90;16.05;;;;;;;;;;5053773;28;20024;-66
2022/12/25 15:19:49;;;;;;;27.98;13.23;;;;;;;;;;5053890;28;20116;-65
2022/12/25 15:22:14;;;;;;;35.78;15.75;;;;;;;;;;5053928;28;20048;-65
2022/12/25 15:24:39;;;;;;;36.35;18.30;;;;;;;;;;5053619;28;20029;-65
2022/12/25 15:27:15;;;;;;;43.65;18.17;;;;;;;;;;5053503;28;20096;-66
2022/12/25 15:29:41;;;;;;;50.70;19.88;;;;;;;;;;5053798;28;20111;-66
2022/12/25 15:32:18;;;;;;;48.70;21.63;;;;;;;;;;5053783;28;20439;-65
2022/12/25 15:34:45;;;;;;;52.13;20.50;;;;;;;;;;5053987;28;20378;-66
2022/12/25 15:37:12;;;;;;;53.80;21.13;;;;;;;;;;5052235;28;20568;-67
2022/12/25 15:39:38;;;;;;;50.75;22.52;;;;;;;;;;5053415;28;20087;-67
2022/12/25 15:42:10;;;;;;;36.53;15.70;;;;;;;;;;5052947;28;20033;-65
2022/12/25 15:44:35;;;;;;;53.95;23.30;;;;;;;;;;5053385;28;20024;-65
2022/12/25 15:47:01;;;;;;;61.25;23.63;;;;;;;;;;5053195;28;20051;-67
2022/12/25 15:49:26;;;;;;;46.25;21.65;;;;;;;;;;5053329;28;20029;-65
2022/12/25 15:51:52;;;;;;;51.78;21.38;;;;;;;;;;5053093;28;20025;-67
2022/12/25 15:54:17;;;;;;;40.58;17.50;;;;;;;;;;5053110;28;20024;-67
2022/12/25 15:56:50;;;;;;;43.30;19.40;;;;;;;;;;5052849;28;20024;-66
2022/12/25 15:59:17;;;;;;;41.65;18.48;;;;;;;;;;5052729;28;20117;-67
2022/12/25 16:01:54;;;;;;;52.38;20.92;;;;;;;;;;5053165;28;20025;-68
2022/12/25 16:04:21;;;;;;;47.83;21.52;;;;;;;;;;5053160;28;20094;-67
2022/12/25 16:06:47;;;;;;;51.92;22.33;;;;;;;;;;5053013;28;20056;-66
2022/12/25 16:09:14;;;;;;;51.53;22.40;;;;;;;;;;5052759;28;20029;-67
2022/12/25 16:11:40;;;;;;;58.40;24.63;;;;;;;;;;5052737;28;20574;-67
2022/12/25 16:14:06;;;;;;;50.22;20.70;;;;;;;;;;5052814;28;20028;-67
2022/12/25 16:16:32;;;;;;;50.78;20.88;;;;;;;;;;5051377;28;20474;-67
2022/12/25 16:18:58;;;;;;;46.17;19.17;;;;;;;;;;5048864;28;20024;-67
2022/12/25 16:21:23;;;;;;;61.25;23.55;;;;;;;;;;5051546;28;20088;-65
2022/12/25 16:23:49;;;;;;;46.20;20.00;;;;;;;;;;5052381;28;20037;-66